メインページ
METAR-TAF:

METAR-TAF

空港 :

ビルビル国際空港

Viru-Viru, ボリビア

緯度: 17-38S, 経度: 063-08W, 海抜: 373m

現時点の気象観測

当レポートは18分前の08:00(UTC)に作成
北/北西の風 8kt
気温 24°C
湿度 94%
気圧 1009 hPa
視程10km以上
高度600ftの雲はほとんどない
高度1100ftの千切れ雲あり

METAR: SLVR 190800Z 34008KT 9999 FEW006 BKN011 24/23 Q1009

時間: 04:18 (08:18 UTC)

予報

当レポートは4時間23分前の03:55(UTC)に作成
予報は19日の 06時(UTC)から 20日の 06時(UTC)まで有効
北/北西の風 5kt
視程: 8000m
高度1000ftの千切れ雲あり
高度7000ftの千切れ雲あり
高度3000ftの雲はほとんどない, 積乱雲.
小雨
19日の 14時(UTC)から 19日の 16時(UTC)まで徐々に
の風 15kt、最大25ktの突風を伴う
視程10km以上
高度1200ftの雲は散在している
高度1700ftの千切れ雲あり
19日の 18時(UTC)から 19日の 20時(UTC)まで一時的に
視程: 8000m
高度2300ftの千切れ雲あり
高度3000ftの雲はほとんどない, 積乱雲.
にわか雨
19日の 23時(UTC)から 20日の 02時(UTC)まで徐々に
の風 10kt
視程10km以上
高度1700ftの雲は散在している

TAF: SLVR 190355Z 1906/2006 34005KT 8000 -RA BKN010 BKN070 FEW030CB TX32/1919Z TN21/1910Z BECMG 1914/1916 35015G25KT 9999 NSW SCT012 BKN017 TEMPO 1918/1920 8000 SHRA BKN023 FEW030CB BECMG 1923/2002 35010KT 9999 NSW SCT017

4,000以上の空港の気象観測と天気予報(METAR報とTAF報)

利用可能な観測所は地図上に黄色い丸と赤い丸で示す。

丸の上にカーソルを重ねると観測所名を参照できる。

次にクリックすると気象観測と天気予報を参照できる。

マップの切り替え:黒色「×」印の緑ボタンをクリックして拡大、「-」印の緑ボタンをクリックして縮小、緑色の三角印をクリックして隣りの地図に切り替え


METAR-TAF: